Time;durP1;ratioP1;P1;durP2;ratioP2;P2;SDS_P1;SDS_P2;PMS_P1;PMS_P2;Temp;Humidity;BMP_temperature;BMP_pressure;BME280_temperature;BME280_humidity;BME280_pressure;Samples;Min_cycle;Max_cycle;Signal;HPM_P1;HPM_P2
2021/01/18 00:00:35;;;;;;;6.95;5.05;;;;;;;22.90;30.21;94942.78;4930216;29;20062;-75
2021/01/18 00:03:03;;;;;;;7.75;5.72;;;;;;;22.89;30.42;94941.28;4931874;29;20043;-75
2021/01/18 00:05:29;;;;;;;6.28;5.28;;;;;;;22.93;30.41;94947.22;4965682;28;20047;-75
2021/01/18 00:07:54;;;;;;;6.70;5.00;;;;;;;22.89;30.44;94946.72;4969341;28;20427;-77
2021/01/18 00:10:21;;;;;;;6.68;5.30;;;;;;;22.87;30.40;94948.50;4970050;28;20027;-75
2021/01/18 00:12:53;;;;;;;6.22;4.90;;;;;;;22.86;30.69;94943.56;4970130;28;20050;-74
2021/01/18 00:15:20;;;;;;;6.43;4.80;;;;;;;22.86;30.51;94947.00;4968478;28;20023;-76
2021/01/18 00:17:45;;;;;;;7.55;5.43;;;;;;;22.84;30.74;94951.47;4968981;28;20027;-74
2021/01/18 00:20:12;;;;;;;6.90;4.93;;;;;;;22.82;30.46;94956.69;4969713;28;20031;-74
2021/01/18 00:22:41;;;;;;;6.50;5.30;;;;;;;22.77;30.60;94946.59;4969498;28;20062;-75
2021/01/18 00:25:12;;;;;;;5.85;4.70;;;;;;;22.85;30.54;94961.13;4969678;28;20472;-74
2021/01/18 00:27:38;;;;;;;7.38;4.90;;;;;;;22.82;30.49;94956.69;4970024;28;20086;-74
2021/01/18 00:30:11;;;;;;;5.80;4.68;;;;;;;22.77;30.28;94957.50;4969960;28;20042;-74
2021/01/18 00:32:38;;;;;;;6.15;5.05;;;;;;;22.78;30.50;94961.66;4969510;28;20031;-75
2021/01/18 00:35:05;;;;;;;7.38;5.15;;;;;;;22.74;30.76;94958.50;4970283;28;20401;-75
2021/01/18 00:37:30;;;;;;;7.13;5.10;;;;;;;22.71;30.69;94962.22;4973634;28;20093;-75
2021/01/18 00:39:56;;;;;;;6.68;5.03;;;;;;;22.71;30.57;94962.22;4973091;28;20035;-76
2021/01/18 00:42:21;;;;;;;6.43;4.93;;;;;;;22.74;30.57;94966.66;4973302;28;20026;-77
2021/01/18 00:44:48;;;;;;;6.57;5.00;;;;;;;22.72;30.55;94974.59;4973486;28;20502;-76
2021/01/18 00:47:14;;;;;;;6.25;5.03;;;;;;;22.67;30.67;94973.38;4973219;28;20030;-76
2021/01/18 00:49:39;;;;;;;6.22;4.80;;;;;;;22.70;30.74;94977.09;4973311;28;20038;-76
2021/01/18 00:52:05;;;;;;;6.57;4.80;;;;;;;22.70;30.71;94977.09;4973140;28;20026;-75
2021/01/18 00:54:30;;;;;;;7.10;5.20;;;;;;;22.68;30.45;94976.84;4973018;28;20038;-77
2021/01/18 00:56:56;;;;;;;6.47;4.80;;;;;;;22.64;30.51;94984.53;4972905;28;20035;-74
2021/01/18 00:59:21;;;;;;;6.45;4.78;;;;;;;22.63;30.59;94983.06;4971557;28;20026;-76
2021/01/18 01:02:05;;;;;;;6.85;4.88;;;;;;;22.65;30.79;94980.59;5317371;23;20041;-69
2021/01/18 01:04:31;;;;;;;6.30;4.85;;;;;;;22.57;31.11;94974.19;4972950;28;20431;-79
2021/01/18 01:06:56;;;;;;;6.50;5.05;;;;;;;22.63;30.56;94972.16;4976030;28;20023;-79
2021/01/18 01:09:22;;;;;;;6.45;4.70;;;;;;;22.62;30.58;94976.88;4976131;28;20043;-79
2021/01/18 01:11:47;;;;;;;6.28;4.90;;;;;;;22.60;30.57;94973.19;4975236;28;20129;-79
2021/01/18 01:14:13;;;;;;;6.55;4.85;;;;;;;22.45;30.76;94948.28;4975119;28;20022;-79
2021/01/18 01:16:38;;;;;;;7.28;4.88;;;;;;;22.63;30.67;94972.16;4975329;28;20106;-79
2021/01/18 01:19:04;;;;;;;5.82;4.60;;;;;;;22.62;30.56;94970.72;4977200;28;20023;-79
2021/01/18 01:21:29;;;;;;;6.80;4.65;;;;;;;22.59;30.68;94982.59;4976151;28;20419;-80
2021/01/18 01:23:55;;;;;;;6.78;4.60;;;;;;;22.59;30.55;94988.03;4976107;28;20488;-79
2021/01/18 01:26:21;;;;;;;7.07;5.32;;;;;;;22.60;30.54;94989.50;4977192;28;20389;-79
2021/01/18 01:28:47;;;;;;;6.53;4.72;;;;;;;22.62;30.46;94987.78;4974961;28;20089;-78
2021/01/18 01:31:12;;;;;;;6.20;4.93;;;;;;;22.58;30.75;94986.56;4975444;28;20038;-79
2021/01/18 01:33:38;;;;;;;5.63;4.55;;;;;;;22.54;30.83;94988.81;4975864;28;20054;-79
2021/01/18 01:36:03;;;;;;;5.97;4.70;;;;;;;22.56;30.84;94983.63;4975985;28;20030;-79
2021/01/18 01:38:29;;;;;;;5.93;4.80;;;;;;;22.57;30.74;94990.50;4976162;28;20031;-79
2021/01/18 01:40:54;;;;;;;6.07;4.97;;;;;;;22.54;30.67;94980.63;4975694;28;20431;-79
2021/01/18 01:43:20;;;;;;;6.18;4.68;;;;;;;22.56;30.73;94972.72;4975686;28;20109;-77
2021/01/18 01:45:45;;;;;;;5.50;4.55;;;;;;;22.56;30.63;94978.16;4975837;28;20030;-79
2021/01/18 01:48:11;;;;;;;5.60;4.88;;;;;;;22.49;30.64;94973.25;4975819;28;21048;-80
2021/01/18 01:50:37;;;;;;;5.90;4.60;;;;;;;22.50;30.64;94982.91;4974272;28;20026;-79
2021/01/18 01:53:23;;;;;;;6.55;4.80;;;;;;;22.50;30.64;94980.19;4975088;28;20487;-79
2021/01/18 01:55:50;;;;;;;6.63;5.00;;;;;;;22.49;30.62;94979.44;4975166;28;20022;-79
2021/01/18 01:58:15;;;;;;;5.65;4.68;;;;;;;22.39;30.59;94968.63;4973863;28;20129;-79
2021/01/18 02:00:41;;;;;;;5.93;4.70;;;;;;;22.49;30.72;94978.69;4973532;28;20113;-79
2021/01/18 02:03:11;;;;;;;6.82;5.03;;;;;;;22.53;30.59;94990.06;4974224;28;20853;-79
2021/01/18 02:05:37;;;;;;;6.15;4.60;;;;;;;22.48;30.59;94988.09;4975582;28;20109;-79
2021/01/18 02:08:03;;;;;;;6.00;4.65;;;;;;;22.45;30.73;94983.66;4974665;28;20045;-79
2021/01/18 02:10:30;;;;;;;5.78;4.70;;;;;;;22.47;30.80;94989.34;4975627;28;20030;-78
2021/01/18 02:13:08;;;;;;;6.43;4.60;;;;;;;22.35;30.82;94968.16;4975568;28;20507;-79
2021/01/18 02:16:02;;;;;;;5.45;4.45;;;;;;;22.46;30.96;94993.31;4974702;28;20030;-79
2021/01/18 02:19:06;;;;;;;5.43;4.25;;;;;;;22.48;30.81;94998.97;4953664;28;20042;-78
2021/01/18 02:22:09;;;;;;;6.93;4.25;;;;;;;22.47;30.80;94997.53;4952043;28;20049;-79
2021/01/18 02:25:08;;;;;;;5.80;4.43;;;;;;;22.45;30.79;95005.44;4975397;28;20038;-79
2021/01/18 02:28:12;;;;;;;6.05;4.53;;;;;;;22.44;30.90;95001.25;4974566;28;20423;-79
2021/01/18 02:30:56;;;;;;;5.82;4.47;;;;;;;22.42;30.66;94995.56;4962282;28;20043;-78
2021/01/18 02:33:33;;;;;;;5.57;4.55;;;;;;;22.42;30.72;94995.56;4975594;28;20042;-79
2021/01/18 02:36:35;;;;;;;5.57;4.38;;;;;;;22.43;30.61;94991.59;4975392;28;20037;-80
2021/01/18 02:39:16;;;;;;;5.78;4.60;;;;;;;22.49;30.52;94997.75;4978857;28;20053;-79
2021/01/18 02:41:48;;;;;;;5.80;4.32;;;;;;;22.43;30.59;94992.34;4973894;28;20109;-79
2021/01/18 02:44:16;;;;;;;6.03;4.40;;;;;;;22.31;30.85;94968.41;4969734;28;20030;-78
2021/01/18 02:46:41;;;;;;;4.70;3.83;;;;;;;22.40;30.85;94981.72;4954401;28;20590;-79
2021/01/18 02:49:06;;;;;;;4.75;4.13;;;;;;;22.28;30.70;94969.41;4955008;29;20449;-80
2021/01/18 02:51:34;;;;;;;5.32;4.30;;;;;;;22.39;30.67;94991.13;4954548;29;20039;-80
2021/01/18 02:54:00;;;;;;;5.88;4.53;;;;;;;22.36;30.78;94997.59;4967140;28;20026;-80
2021/01/18 02:56:27;;;;;;;5.50;4.15;;;;;;;22.27;30.79;94995.16;4975137;28;20046;-79
2021/01/18 02:58:56;;;;;;;6.78;4.47;;;;;;;22.13;30.86;94996.16;4973779;28;20038;-79
2021/01/18 03:02:03;;;;;;;6.07;4.85;;;;;;;22.06;31.09;94999.44;4975123;28;20090;-80
2021/01/18 03:04:52;;;;;;;5.47;4.32;;;;;;;22.06;30.99;94996.69;4980084;28;20050;-78
2021/01/18 03:07:29;;;;;;;6.07;4.78;;;;;;;22.00;31.14;94987.81;4975229;28;20043;-80
2021/01/18 03:10:05;;;;;;;5.80;4.65;;;;;;;22.13;30.99;95001.59;4989828;28;20121;-80
2021/01/18 03:12:37;;;;;;;6.00;4.28;;;;;;;22.17;30.90;95007.53;4989202;28;20081;-79
2021/01/18 03:15:03;;;;;;;5.90;4.93;;;;;;;22.25;30.80;95003.06;4989964;28;20050;-79
2021/01/18 03:17:29;;;;;;;6.00;4.72;;;;;;;22.27;30.78;95000.59;4992646;28;20032;-80
2021/01/18 03:19:55;;;;;;;6.43;4.40;;;;;;;22.29;30.85;95009.00;4974570;28;20397;-80
2021/01/18 03:22:25;;;;;;;5.72;4.40;;;;;;;22.31;30.61;95011.94;4990307;28;20030;-80
2021/01/18 03:24:50;;;;;;;5.55;4.25;;;;;;;22.31;30.76;95008.50;4974147;28;20085;-79
2021/01/18 03:27:15;;;;;;;5.80;4.80;;;;;;;22.22;30.61;94993.19;4974250;28;20443;-79
2021/01/18 03:29:41;;;;;;;5.43;4.60;;;;;;;22.31;30.72;95011.94;4974322;28;20041;-80
2021/01/18 03:32:07;;;;;;;6.30;4.78;;;;;;;22.34;30.80;95005.50;4974073;28;20046;-80
2021/01/18 03:34:36;;;;;;;6.18;4.60;;;;;;;22.33;30.70;95004.03;4975116;28;20027;-79
2021/01/18 03:37:02;;;;;;;6.03;4.73;;;;;;;22.31;30.67;95006.50;4984395;28;20034;-79
2021/01/18 03:39:29;;;;;;;5.40;4.20;;;;;;;22.28;30.86;95002.06;4993202;28;20076;-80
2021/01/18 03:41:54;;;;;;;6.68;4.70;;;;;;;22.29;30.86;95009.00;4973628;28;20080;-79
2021/01/18 03:44:20;;;;;;;6.97;4.43;;;;;;;22.31;30.70;95006.50;4973981;28;20447;-79
2021/01/18 03:46:45;;;;;;;6.35;4.95;;;;;;;22.26;30.83;95004.56;4977724;28;20089;-79
2021/01/18 03:49:11;;;;;;;5.65;4.05;;;;;;;22.26;30.81;95010.00;4973545;28;20070;-79
2021/01/18 03:51:37;;;;;;;5.78;4.68;;;;;;;22.28;30.72;95017.66;4972050;28;20031;-79
2021/01/18 03:54:03;;;;;;;5.28;4.20;;;;;;;22.30;30.59;95009.72;4971929;28;20400;-79
2021/01/18 03:56:28;;;;;;;5.85;4.60;;;;;;;22.28;30.81;95007.50;4973851;28;20034;-79
2021/01/18 03:58:54;;;;;;;6.18;4.85;;;;;;;22.29;30.68;95019.13;4974672;28;20050;-79
2021/01/18 04:01:19;;;;;;;6.03;4.40;;;;;;;22.30;30.59;95015.91;4974835;28;20023;-79
2021/01/18 04:03:45;;;;;;;5.53;4.35;;;;;;;22.31;31.04;95019.38;4976179;28;20042;-78
2021/01/18 04:06:10;;;;;;;5.97;4.38;;;;;;;22.00;30.68;94993.28;4977248;28;20028;-78
2021/01/18 04:08:36;;;;;;;6.43;4.82;;;;;;;22.30;30.72;95031.47;4991873;28;20030;-78
2021/01/18 04:11:01;;;;;;;5.78;4.45;;;;;;;22.30;30.55;95032.25;4977680;28;20033;-79
2021/01/18 04:13:26;;;;;;;5.82;4.45;;;;;;;22.30;30.74;95037.69;4980463;28;20074;-79
2021/01/18 04:15:52;;;;;;;5.28;4.10;;;;;;;22.28;30.53;95029.25;4974935;28;20019;-79
2021/01/18 04:18:18;;;;;;;6.05;4.82;;;;;;;22.29;30.71;95036.19;4974931;28;20039;-80
2021/01/18 04:20:43;;;;;;;5.43;4.25;;;;;;;22.30;30.57;95031.47;4990616;28;20030;-79
2021/01/18 04:23:08;;;;;;;6.15;4.78;;;;;;;22.18;30.79;95019.91;4996873;28;20491;-80
2021/01/18 04:25:34;;;;;;;5.30;4.22;;;;;;;22.27;30.74;95038.69;4994442;28;20077;-80
2021/01/18 04:28:01;;;;;;;6.07;4.80;;;;;;;22.20;30.61;95028.28;4993640;28;20077;-80
2021/01/18 04:30:35;;;;;;;6.72;4.75;;;;;;;22.29;30.75;95041.63;4994692;28;20080;-80
2021/01/18 04:33:05;;;;;;;5.25;4.35;;;;;;;22.23;30.65;95049.06;4992605;28;20101;-80
2021/01/18 04:35:31;;;;;;;;;;;;;;;22.15;30.77;95048.09;4994470;28;20022;-81
2021/01/18 04:37:57;;;;;;;6.10;4.50;;;;;;;22.20;30.75;95043.88;4993853;28;19926;-80
2021/01/18 04:40:23;;;;;;;5.97;4.60;;;;;;;22.16;30.80;95041.41;4994575;28;20022;-80
2021/01/18 04:42:49;;;;;;;4.53;3.90;;;;;;;22.15;30.71;95048.09;4992610;28;20428;-80
2021/01/18 04:45:16;;;;;;;5.72;4.60;;;;;;;22.08;30.80;95048.59;4993763;28;20101;-80
2021/01/18 04:47:43;;;;;;;5.60;4.28;;;;;;;22.14;30.67;95057.47;4993149;28;20026;-80
2021/01/18 04:50:09;;;;;;;6.25;4.30;;;;;;;22.19;30.77;95059.44;4995747;28;20027;-79
2021/01/18 04:52:40;;;;;;;6.10;4.53;;;;;;;22.10;30.72;95040.69;4993414;28;20037;-80
2021/01/18 04:55:06;;;;;;;6.13;4.63;;;;;;;22.21;30.67;95062.44;4992552;28;20096;-80
2021/01/18 04:57:32;;;;;;;5.88;4.75;;;;;;;22.21;30.58;95064.41;4976640;28;20042;-80
2021/01/18 05:00:04;;;;;;;5.30;4.35;;;;;;;22.18;30.70;95074.28;4992812;28;20112;-80
2021/01/18 05:02:38;;;;;;;5.40;4.45;;;;;;;22.18;30.71;95068.84;4961986;28;883699;-80
2021/01/18 05:05:06;;;;;;;5.88;4.53;;;;;;;22.19;30.70;95064.16;4993717;28;20037;-81
2021/01/18 05:07:34;;;;;;;6.15;4.32;;;;;;;22.18;30.79;95063.41;4960100;28;20101;-80
2021/01/18 05:10:06;;;;;;;5.32;4.32;;;;;;;22.15;30.60;95069.84;4975375;28;20459;-80
2021/01/18 05:12:34;;;;;;;6.68;4.70;;;;;;;22.11;30.75;95057.75;4977403;28;20045;-80
2021/01/18 05:15:00;;;;;;;5.63;4.45;;;;;;;21.92;30.81;95039.75;4977689;28;20124;-80
2021/01/18 05:17:34;;;;;;;5.72;4.68;;;;;;;22.12;30.68;95070.09;4974223;28;20030;-79
2021/01/18 05:20:00;;;;;;;5.97;4.72;;;;;;;22.12;30.89;95070.84;4976402;28;20031;-80
2021/01/18 05:22:25;;;;;;;6.13;4.75;;;;;;;22.12;30.70;95076.28;4970416;28;20031;-75
2021/01/18 05:24:53;;;;;;;6.38;4.70;;;;;;;21.99;30.88;95057.03;4955805;29;20047;-87
2021/01/18 05:27:18;;;;;;;6.00;4.50;;;;;;;22.11;30.74;95077.53;4981903;28;20026;-86
2021/01/18 05:29:44;;;;;;;5.22;4.45;;;;;;;22.12;30.96;95080.97;4975055;28;20030;-81
2021/01/18 05:32:20;;;;;;;5.32;4.43;;;;;;;22.08;31.14;95086.69;4974038;28;20035;-80
2021/01/18 05:34:45;;;;;;;5.90;4.53;;;;;;;22.04;31.13;95086.19;4974531;28;20077;-79
2021/01/18 05:37:11;;;;;;;5.30;4.60;;;;;;;21.98;31.43;95090.16;5012332;23;20059;-81
2021/01/18 05:39:36;;;;;;;5.70;4.40;;;;;;;21.93;31.54;95091.66;4904126;28;20035;-82
2021/01/18 05:42:01;;;;;;;6.30;4.80;;;;;;;21.98;31.38;95090.16;4959929;29;20023;-81
2021/01/18 05:44:32;;;;;;;5.25;4.30;;;;;;;22.00;31.40;95072.13;4956169;29;20020;-86
2021/01/18 05:47:06;;;;;;;5.80;4.43;;;;;;;22.04;31.17;95069.88;4960444;28;20031;-87
2021/01/18 05:49:41;;;;;;;6.40;4.28;;;;;;;22.14;31.34;95079.25;4963275;28;20050;-88
2021/01/18 05:52:27;;;;;;;7.95;4.78;;;;;;;22.36;31.23;95095.53;4962329;28;20031;-82
2021/01/18 05:55:21;;;;;;;6.60;4.55;;;;;;;22.51;31.13;95101.38;4956662;28;20027;-88
2021/01/18 05:57:51;;;;;;;5.75;4.45;;;;;;;22.56;31.28;95095.19;4971423;28;20097;-81
2021/01/18 06:00:32;;;;;;;5.63;4.57;;;;;;;22.68;30.84;95104.78;4967936;28;20126;-84
2021/01/18 06:03:00;;;;;;;5.85;4.50;;;;;;;22.77;31.01;95104.50;4961917;28;20046;-79
2021/01/18 06:05:29;;;;;;;4.82;4.13;;;;;;;22.86;31.08;95104.22;4955742;28;20291;-75
2021/01/18 06:08:16;;;;;;;6.60;4.80;;;;;;;22.79;30.98;95083.69;4962420;28;20118;-85
2021/01/18 06:10:45;;;;;;;5.82;4.45;;;;;;;22.97;31.03;95105.66;4963128;28;20041;-87
2021/01/18 06:13:27;;;;;;;6.25;4.70;;;;;;;22.95;30.34;95089.06;4950932;28;20027;-73
2021/01/18 06:16:10;;;;;;;5.57;4.47;;;;;;;23.16;30.46;95103.78;4951424;28;20553;-78
2021/01/18 06:18:40;;;;;;;5.95;4.43;;;;;;;23.26;30.39;95104.97;4956964;28;20015;-75
2021/01/18 06:21:07;;;;;;;5.95;4.50;;;;;;;23.32;30.05;95111.13;4963847;28;20518;-85
2021/01/18 06:23:32;;;;;;;5.53;4.70;;;;;;;23.37;30.12;95104.88;4969442;28;20026;-78
2021/01/18 06:25:58;;;;;;;6.25;4.82;;;;;;;23.45;30.26;95108.53;4961481;28;20015;-78
2021/01/18 06:28:27;;;;;;;5.75;4.93;;;;;;;23.47;29.88;95116.97;4966193;28;20627;-81
2021/01/18 06:30:56;;;;;;;6.47;4.60;;;;;;;23.60;30.10;95111.63;4958247;28;20027;-82
2021/01/18 06:33:33;;;;;;;5.47;4.68;;;;;;;23.62;29.71;95109.88;4973979;28;20023;-79
2021/01/18 06:36:10;;;;;;;5.57;4.57;;;;;;;23.72;29.96;95113.06;4972397;28;20043;-82
2021/01/18 06:38:35;;;;;;;5.93;4.90;;;;;;;23.76;29.93;95113.53;4970771;28;20042;-75
2021/01/18 06:41:01;;;;;;;6.25;4.70;;;;;;;23.70;29.90;95099.94;4966950;28;20062;-79
2021/01/18 06:43:26;;;;;;;6.10;4.80;;;;;;;23.73;29.48;95103.63;4951602;28;20484;-77
2021/01/18 06:45:51;;;;;;;5.75;4.70;;;;;;;23.92;29.38;95137.94;4960704;28;20192;-82
2021/01/18 06:48:17;;;;;;;5.88;4.20;;;;;;;23.97;29.55;95140.59;4959174;28;20448;-80
2021/01/18 06:50:42;;;;;;;6.93;4.30;;;;;;;24.01;29.28;95135.59;4955963;28;20495;-76
2021/01/18 06:53:15;;;;;;;5.93;4.70;;;;;;;24.09;29.03;95141.97;4953607;28;20523;-76
2021/01/18 06:55:54;;;;;;;6.15;4.80;;;;;;;24.09;29.16;95147.41;4954028;28;20024;-80
2021/01/18 06:58:51;;;;;;;6.13;4.97;;;;;;;24.13;28.96;95156.06;4943291;28;20031;-80
2021/01/18 07:01:25;;;;;;;5.80;5.00;;;;;;;24.13;29.23;95153.34;4948487;28;20090;-81
2021/01/18 07:03:54;;;;;;;5.00;4.20;;;;;;;24.13;29.13;95142.44;4958209;28;20113;-79
2021/01/18 07:06:30;;;;;;;5.65;4.95;;;;;;;24.26;29.03;95145.28;4953951;28;20023;-75
2021/01/18 07:08:56;;;;;;;5.55;4.60;;;;;;;24.17;28.95;95142.91;4956520;28;20035;-77
2021/01/18 07:11:22;;;;;;;5.65;4.60;;;;;;;24.18;29.13;95152.53;4956429;28;20401;-76
2021/01/18 07:13:49;;;;;;;5.65;4.70;;;;;;;24.23;28.43;95154.50;4953682;28;20119;-76
2021/01/18 07:16:14;;;;;;;5.40;4.43;;;;;;;24.31;28.51;95163.59;4967661;28;20081;-79
2021/01/18 07:18:40;;;;;;;6.25;4.78;;;;;;;24.44;28.29;95171.94;4964112;28;20539;-87
2021/01/18 07:21:05;;;;;;;5.55;4.47;;;;;;;24.50;28.90;95167.16;4964327;28;20027;-76
2021/01/18 07:23:31;;;;;;;4.63;3.90;;;;;;;24.52;28.31;95167.38;4964464;28;20436;-77
2021/01/18 07:26:31;;;;;;;6.22;4.70;;;;;;;24.51;28.40;95165.88;4967295;28;20030;-78
2021/01/18 07:28:59;;;;;;;;;;;;;;;24.55;28.40;95155.41;4968038;28;20034;-79
2021/01/18 07:31:25;;;;;;;6.15;4.90;;;;;;;24.55;28.32;95160.88;4959525;28;19981;-78
2021/01/18 07:33:50;;;;;;;6.68;4.45;;;;;;;24.55;28.49;95169.06;4964060;28;20023;-77
2021/01/18 07:36:23;;;;;;;7.13;4.30;;;;;;;24.54;28.41;95171.06;4970338;28;20484;-76
2021/01/18 07:38:48;;;;;;;5.75;4.65;;;;;;;24.59;28.63;95183.19;4971712;28;20035;-78
2021/01/18 07:41:15;;;;;;;5.40;4.63;;;;;;;24.53;28.95;95179.78;4970654;28;20026;-78
2021/01/18 07:43:42;;;;;;;6.22;4.47;;;;;;;24.52;28.41;95183.75;4969074;28;20085;-78
2021/01/18 07:46:25;;;;;;;6.07;4.95;;;;;;;24.48;28.88;95188.75;4965330;28;20015;-77
2021/01/18 07:48:51;;;;;;;5.70;4.40;;;;;;;24.45;28.77;95189.78;4964595;28;20094;-76
2021/01/18 07:51:20;;;;;;;5.32;4.18;;;;;;;24.15;29.08;95164.47;4968352;28;20027;-74
2021/01/18 07:53:46;;;;;;;5.13;4.20;;;;;;;24.23;29.95;95183.75;4950823;29;20035;-75
2021/01/18 07:56:12;;;;;;;6.35;4.63;;;;;;;24.22;29.43;95199.41;4954887;28;20551;-76
2021/01/18 07:58:39;;;;;;;6.40;4.57;;;;;;;24.14;30.19;95203.19;4955602;28;20023;-76
2021/01/18 08:01:58;;;;;;;5.45;4.70;;;;;;;24.07;30.08;95201.75;4959236;28;20034;-76
2021/01/18 08:04:25;;;;;;;7.45;5.10;;;;;;;23.99;29.49;95203.56;4941263;29;20493;-76
2021/01/18 08:07:06;;;;;;;7.78;5.13;;;;;;;23.97;29.49;95206.06;4968539;28;20027;-76
2021/01/18 08:09:32;;;;;;;8.23;5.80;;;;;;;23.83;30.10;95211.16;4957322;28;20055;-85
2021/01/18 08:12:35;;;;;;;7.60;5.85;;;;;;;23.84;30.63;95212.63;4968824;28;20052;-69
2021/01/18 08:15:08;;;;;;;9.13;6.30;;;;;;;23.82;30.72;95209.66;4967221;28;20041;-69
2021/01/18 08:17:33;;;;;;;10.07;6.60;;;;;;;23.82;30.16;95209.66;4952030;28;20078;-69
2021/01/18 08:20:16;;;;;;;10.55;6.82;;;;;;;23.80;30.48;95209.44;4958073;28;20492;-69
2021/01/18 08:22:41;;;;;;;9.63;6.80;;;;;;;23.59;31.04;95213.78;4948800;28;20463;-68
2021/01/18 08:25:08;;;;;;;10.27;6.75;;;;;;;23.42;30.66;95221.28;4961399;28;20038;-71
2021/01/18 08:27:46;;;;;;;11.02;7.57;;;;;;;23.31;30.82;95194.09;4963518;28;20027;-70
2021/01/18 08:30:18;;;;;;;11.32;7.93;;;;;;;23.46;30.41;95210.88;4969522;28;20019;-71
2021/01/18 08:32:51;;;;;;;13.73;8.63;;;;;;;23.29;30.51;95185.72;4964842;28;20041;-70
2021/01/18 08:35:17;;;;;;;13.63;8.63;;;;;;;23.49;30.52;95207.13;4962382;28;20026;-70
2021/01/18 08:38:00;;;;;;;13.38;8.88;;;;;;;23.47;30.23;95218.53;4966629;28;20109;-74
2021/01/18 08:40:41;;;;;;;13.07;9.18;;;;;;;23.46;30.40;95216.31;4968052;28;20034;-70
2021/01/18 08:43:07;;;;;;;13.68;9.25;;;;;;;23.47;30.11;95215.09;4954068;28;20500;-71
2021/01/18 08:45:43;;;;;;;14.80;9.48;;;;;;;23.47;30.43;95206.91;4948433;28;20019;-70
2021/01/18 08:48:15;;;;;;;14.20;9.43;;;;;;;23.42;30.04;95210.38;4965581;28;20031;-69
2021/01/18 08:50:42;;;;;;;13.90;9.00;;;;;;;23.41;29.91;95206.19;4960940;28;20470;-70
2021/01/18 08:53:34;;;;;;;14.25;9.63;;;;;;;23.41;30.28;95208.91;4969064;28;20474;-70
2021/01/18 08:56:02;;;;;;;15.60;9.85;;;;;;;23.40;29.84;95212.88;4970488;28;20030;-70
2021/01/18 08:58:34;;;;;;;14.27;9.85;;;;;;;23.34;30.09;95206.72;4968494;28;20027;-70
2021/01/18 09:01:00;;;;;;;16.63;10.35;;;;;;;23.29;30.38;95212.94;4964680;28;20023;-70
2021/01/18 09:03:25;;;;;;;15.88;10.10;;;;;;;23.20;30.12;95198.88;4973693;28;20037;-70
2021/01/18 09:05:55;;;;;;;14.15;10.10;;;;;;;23.20;30.10;95202.34;4970981;28;20011;-70
2021/01/18 09:08:22;;;;;;;18.95;11.70;;;;;;;23.20;29.95;95210.53;4971507;28;20131;-70
2021/01/18 09:10:54;;;;;;;16.25;10.98;;;;;;;23.20;30.03;95221.41;4953086;28;20035;-72
2021/01/18 09:13:21;;;;;;;17.15;11.13;;;;;;;23.09;30.30;95196.19;4967564;28;20049;-71
2021/01/18 09:15:47;;;;;;;17.38;11.75;;;;;;;23.21;30.06;95209.25;4967614;28;20023;-71
2021/01/18 09:18:12;;;;;;;18.52;11.55;;;;;;;23.17;30.38;95214.25;4966006;28;20029;-71
2021/01/18 09:20:41;;;;;;;18.50;11.85;;;;;;;23.13;30.52;95204.84;4968560;28;20093;-71
2021/01/18 09:23:08;;;;;;;17.30;11.85;;;;;;;23.13;30.30;95211.03;4966858;28;20031;-71
2021/01/18 09:25:37;;;;;;;18.75;12.45;;;;;;;23.13;30.11;95205.59;4955849;28;20027;-71
2021/01/18 09:28:07;;;;;;;18.60;12.07;;;;;;;23.13;30.47;95200.16;4955280;28;20407;-70
2021/01/18 09:30:32;;;;;;;17.80;11.82;;;;;;;23.13;30.38;95194.69;4954723;28;20652;-70
2021/01/18 09:33:05;;;;;;;20.05;12.50;;;;;;;23.13;30.22;95205.59;4956779;28;20023;-70
2021/01/18 09:35:32;;;;;;;19.23;12.10;;;;;;;23.10;30.56;95190.25;4954907;28;20082;-70
2021/01/18 09:37:58;;;;;;;20.27;12.65;;;;;;;23.13;30.40;95194.69;4954515;28;20190;-70
2021/01/18 09:40:24;;;;;;;20.23;12.73;;;;;;;22.99;30.33;95167.78;4955481;28;20027;-70
2021/01/18 09:42:52;;;;;;;20.38;12.88;;;;;;;23.18;30.57;95180.28;4936552;29;20029;-70
2021/01/18 09:45:17;;;;;;;20.27;12.95;;;;;;;22.91;30.35;95151.22;4963114;28;20027;-72
2021/01/18 09:47:43;;;;;;;19.45;12.60;;;;;;;23.16;30.60;95180.06;4966201;28;20084;-70
2021/01/18 09:50:09;;;;;;;18.80;12.43;;;;;;;23.15;30.49;95186.78;4965982;28;20060;-70
2021/01/18 09:52:42;;;;;;;17.88;12.50;;;;;;;22.99;30.60;95157.63;4971949;28;20487;-70
2021/01/18 09:55:34;;;;;;;20.65;13.30;;;;;;;23.11;30.66;95175.41;4963063;28;20174;-71
2021/01/18 09:58:12;;;;;;;21.75;13.05;;;;;;;23.09;30.42;95175.16;4962214;28;20035;-71
2021/01/18 10:00:38;;;;;;;19.88;12.93;;;;;;;23.04;30.35;95173.19;4967040;28;20027;-71
2021/01/18 10:03:03;;;;;;;21.83;14.00;;;;;;;23.04;30.18;95167.75;4964494;28;20037;-70
2021/01/18 10:05:40;;;;;;;20.08;12.77;;;;;;;22.91;30.33;95145.75;4949172;28;20019;-71
2021/01/18 10:08:26;;;;;;;20.83;12.88;;;;;;;23.08;30.15;95165.50;4944337;28;20035;-77
2021/01/18 10:10:52;;;;;;;21.48;14.25;;;;;;;23.04;30.28;95154.13;4957762;28;20044;-86
2021/01/18 10:13:20;;;;;;;19.67;13.05;;;;;;;23.07;30.36;95153.13;4957380;28;20548;-78
2021/01/18 10:15:46;;;;;;;19.80;13.07;;;;;;;23.04;31.26;95143.22;4968597;28;20066;-83
2021/01/18 10:18:30;;;;;;;19.88;12.38;;;;;;;23.05;31.50;95147.44;4968202;28;20074;-78
2021/01/18 10:20:55;;;;;;;19.02;12.10;;;;;;;23.04;31.97;95154.13;4958834;29;20523;-81
2021/01/18 10:23:21;;;;;;;19.20;12.40;;;;;;;23.06;32.42;95151.66;4954396;28;20023;-79
2021/01/18 10:25:47;;;;;;;20.40;12.02;;;;;;;23.10;32.87;95152.13;4955419;28;20031;-80
2021/01/18 10:28:17;;;;;;;21.13;12.40;;;;;;;23.12;32.82;95149.66;4955014;28;20492;-80
2021/01/18 10:30:42;;;;;;;19.00;11.80;;;;;;;23.15;33.16;95148.63;4951418;28;20038;-80
2021/01/18 10:33:14;;;;;;;17.70;12.00;;;;;;;23.15;33.21;95140.47;4958412;28;20392;-80
2021/01/18 10:35:40;;;;;;;19.27;11.50;;;;;;;23.09;33.76;95145.22;4967411;28;20027;-78
2021/01/18 10:38:22;;;;;;;18.15;11.75;;;;;;;23.10;34.39;95141.22;4954786;29;20051;-80
2021/01/18 10:41:07;;;;;;;18.10;12.65;;;;;;;23.08;34.17;95146.44;4954548;28;20023;-79
2021/01/18 10:43:33;;;;;;;18.80;11.65;;;;;;;23.13;34.39;95142.22;4955048;28;20039;-77
2021/01/18 10:45:58;;;;;;;17.38;11.98;;;;;;;23.13;34.85;95145.66;4953178;28;20085;-73
2021/01/18 10:48:31;;;;;;;18.30;11.65;;;;;;;23.12;35.11;95149.66;4954818;28;20034;-74
2021/01/18 10:50:58;;;;;;;18.15;11.77;;;;;;;23.16;34.85;95133.75;4965341;28;20038;-76
2021/01/18 10:53:28;;;;;;;15.90;11.25;;;;;;;23.13;34.90;95137.50;4953945;28;20220;-74
2021/01/18 10:56:09;;;;;;;16.60;11.15;;;;;;;23.17;35.03;95146.13;4953982;28;20035;-73
2021/01/18 10:58:35;;;;;;;18.15;11.25;;;;;;;23.17;35.09;95146.13;4965455;28;20407;-73
2021/01/18 11:01:10;;;;;;;18.83;11.15;;;;;;;23.16;35.10;95150.09;4956126;28;20113;-72
2021/01/18 11:03:36;;;;;;;16.85;11.15;;;;;;;23.18;35.07;95153.06;4971821;28;20053;-75
2021/01/18 11:06:12;;;;;;;17.38;11.18;;;;;;;23.21;35.29;95152.03;4928190;28;20831;-75
2021/01/18 11:08:37;;;;;;;15.23;10.20;;;;;;;23.21;34.85;95141.16;4969595;28;20026;-75
2021/01/18 11:11:15;;;;;;;17.45;11.23;;;;;;;23.09;35.00;95117.97;4965307;28;20039;-75
2021/01/18 11:13:41;;;;;;;16.95;11.45;;;;;;;23.22;34.92;95137.19;4981503;28;20038;-73
2021/01/18 11:16:10;;;;;;;16.90;11.25;;;;;;;23.17;35.01;95126.31;4973009;28;20050;-73
2021/01/18 11:18:36;;;;;;;16.63;10.63;;;;;;;23.19;35.59;95132.75;4965504;28;20457;-76
2021/01/18 11:21:01;;;;;;;15.93;10.05;;;;;;;23.23;35.30;95132.47;4983398;28;20061;-78
2021/01/18 11:23:27;;;;;;;14.95;9.70;;;;;;;23.22;34.98;95131.75;4955488;28;20031;-89
2021/01/18 11:25:52;;;;;;;16.23;10.43;;;;;;;23.27;35.29;95128.22;4984208;28;20085;-76
2021/01/18 11:28:19;;;;;;;14.68;9.23;;;;;;;23.10;30.40;95119.44;4971673;28;20038;-73
2021/01/18 11:30:44;;;;;;;13.20;9.65;;;;;;;23.13;34.69;95123.13;4975831;28;20029;-78
2021/01/18 11:33:10;;;;;;;15.27;10.13;;;;;;;23.09;34.99;95111.75;4989037;28;20022;-74
2021/01/18 11:35:36;;;;;;;15.88;10.23;;;;;;;23.26;35.48;95132.22;4977646;28;20062;-74
2021/01/18 11:38:02;;;;;;;15.65;10.20;;;;;;;23.30;35.00;95132.66;4972291;28;20061;-76
2021/01/18 11:40:28;;;;;;;13.57;9.00;;;;;;;23.30;35.11;95121.03;4973200;28;20121;-76
2021/01/18 11:42:59;;;;;;;15.15;9.80;;;;;;;23.35;34.89;95134.63;4972322;28;20031;-79